createdAt,value
2022-11-12T00:05:23.384Z,102283.22
2022-11-12T00:11:12.583Z,102295.03
2022-11-12T00:17:00.161Z,102289.38
2022-11-12T00:22:48.412Z,102288.84
2022-11-12T00:28:38.340Z,102282.84
2022-11-12T00:34:26.274Z,102285.84
2022-11-12T00:40:14.253Z,102288.63
2022-11-12T00:46:02.565Z,102279.22
2022-11-12T00:51:50.695Z,102276.53
2022-11-12T00:57:38.464Z,102257.94
2022-11-12T01:03:28.887Z,102253.22
2022-11-12T01:09:16.150Z,102251.97
2022-11-12T01:15:04.781Z,102249.53
2022-11-12T01:20:53.556Z,102241.75
2022-11-12T01:26:41.495Z,102242.34
2022-11-12T01:32:29.140Z,102245.75
2022-11-12T01:38:18.459Z,102249.75
2022-11-12T01:44:12.375Z,102243.28
2022-11-12T01:50:15.976Z,102239.44
2022-11-12T01:56:06.749Z,102237.66
2022-11-12T02:01:54.477Z,102236.25
2022-11-12T02:07:43.097Z,102236.28
2022-11-12T02:13:48.426Z,102244.22
2022-11-12T02:19:38.377Z,102258.13
2022-11-12T02:25:28.407Z,102263.25
2022-11-12T02:31:16.348Z,102272.66
2022-11-12T02:37:04.221Z,102274.06
2022-11-12T02:42:53.600Z,102280.16
2022-11-12T02:48:41.558Z,102282.28
2022-11-12T02:54:29.246Z,102288.91
2022-11-12T03:00:19.393Z,102292.25
2022-11-12T03:06:08.336Z,102295.47
2022-11-12T03:11:56.268Z,102299.97
2022-11-12T03:17:45.550Z,102305.94
2022-11-12T03:23:33.225Z,102298.22
2022-11-12T03:29:21.268Z,102287.59
2022-11-12T03:35:10.755Z,102293.84
2022-11-12T03:40:58.290Z,102287.38
2022-11-12T03:46:46.252Z,102300.31
2022-11-12T03:52:35.796Z,102293.53
2022-11-12T03:58:23.428Z,102296.00
2022-11-12T04:04:11.706Z,102290.47
2022-11-12T04:10:00.717Z,102292.94
2022-11-12T04:16:08.213Z,102283.84
2022-11-12T04:22:00.057Z,102286.94
2022-11-12T04:27:49.560Z,102290.31
2022-11-12T04:33:37.507Z,102283.22
2022-11-12T04:39:25.331Z,102291.31
2022-11-12T04:45:14.644Z,102289.16
2022-11-12T04:51:03.843Z,102315.28
2022-11-12T04:56:51.290Z,102322.63
2022-11-12T05:02:40.654Z,102324.44
2022-11-12T05:08:28.507Z,102327.97
2022-11-12T05:14:16.502Z,102337.31
2022-11-12T05:20:08.337Z,102344.94
2022-11-12T05:25:56.506Z,102346.06
2022-11-12T05:31:44.566Z,102335.50
2022-11-12T05:37:33.529Z,102331.22
2022-11-12T05:43:21.324Z,102325.84
2022-11-12T05:49:09.579Z,102329.88
2022-11-12T05:54:58.680Z,102339.81
2022-11-12T06:00:46.414Z,102337.31
2022-11-12T06:06:34.539Z,102334.50
2022-11-12T06:12:24.042Z,102334.19
2022-11-12T06:18:11.279Z,102340.69
2022-11-12T06:24:01.121Z,102331.44
2022-11-12T06:29:51.276Z,102328.22
2022-11-12T06:35:42.931Z,102326.91
2022-11-12T06:41:31.565Z,102308.34
2022-11-12T06:47:20.483Z,102308.28
2022-11-12T06:53:08.320Z,102298.44
2022-11-12T06:58:56.503Z,102286.19
2022-11-12T07:04:45.616Z,102294.69
2022-11-12T07:10:33.297Z,102269.59
2022-11-12T07:16:22.491Z,102280.69
2022-11-12T07:22:11.698Z,102286.59
2022-11-12T07:27:59.206Z,102276.78
2022-11-12T07:33:48.879Z,102281.38
2022-11-12T07:39:37.674Z,102289.84
2022-11-12T07:45:25.258Z,102288.19
2022-11-12T07:51:15.186Z,102297.34
2022-11-12T07:57:04.977Z,102302.44
2022-11-12T08:02:53.236Z,102295.84
2022-11-12T08:08:41.363Z,102290.25
2022-11-12T08:14:30.890Z,102298.50
2022-11-12T08:20:18.463Z,102298.53
2022-11-12T08:26:08.360Z,102302.63
2022-11-12T08:31:57.559Z,102297.50
2022-11-12T08:37:45.283Z,102286.31
2022-11-12T08:43:33.387Z,102269.13
2022-11-12T08:49:22.888Z,102273.09
2022-11-12T08:55:10.662Z,102264.22
2022-11-12T09:00:58.782Z,102261.84
2022-11-12T09:06:52.665Z,102263.63
2022-11-12T09:12:41.181Z,102250.06
2022-11-12T09:18:28.762Z,102243.03
2022-11-12T09:24:18.103Z,102226.13
2022-11-12T09:30:09.419Z,102232.47
2022-11-12T09:35:57.773Z,102228.09
2022-11-12T09:41:46.772Z,102214.34
2022-11-12T09:47:39.751Z,102216.94
2022-11-12T09:53:39.070Z,102204.41
2022-11-12T09:59:34.275Z,102205.97
2022-11-12T10:05:30.079Z,102210.78
2022-11-12T10:12:03.856Z,102198.94
2022-11-12T10:18:06.248Z,102213.81
2022-11-12T10:23:55.032Z,102210.63
2022-11-12T10:29:50.744Z,102225.31
2022-11-12T10:35:39.742Z,102218.56
2022-11-12T10:41:30.957Z,102223.63
2022-11-12T10:47:25.781Z,102218.72
2022-11-12T10:53:14.642Z,102216.31
2022-11-12T10:59:15.832Z,102211.13
2022-11-12T11:05:31.468Z,102204.91
2022-11-12T11:11:23.474Z,102198.97
2022-11-12T11:17:18.214Z,102195.28
2022-11-12T11:23:16.159Z,102197.97
2022-11-12T11:29:26.527Z,102179.44
2022-11-12T11:35:24.306Z,102178.34
2022-11-12T11:41:31.387Z,102166.06
2022-11-12T11:47:59.510Z,102176.75
2022-11-12T11:53:54.061Z,102164.44
2022-11-12T11:59:57.023Z,102156.63
2022-11-12T12:05:51.745Z,102145.53
2022-11-12T12:11:48.194Z,102133.50
2022-11-12T12:17:48.916Z,102129.56
2022-11-12T12:23:42.870Z,102134.81
2022-11-12T12:29:38.409Z,102131.06
2022-11-12T12:35:31.927Z,102123.66
2022-11-12T12:41:27.831Z,102120.06
2022-11-12T12:47:18.236Z,102130.53
2022-11-12T12:53:07.253Z,102116.81
2022-11-12T12:58:56.754Z,102129.81
2022-11-12T13:04:53.555Z,102108.97
2022-11-12T13:10:51.604Z,102095.94
2022-11-12T13:17:01.118Z,102097.31
2022-11-12T13:22:51.678Z,102113.72
2022-11-12T13:29:17.673Z,102112.94
2022-11-12T13:35:30.272Z,102115.69
2022-11-12T13:41:42.335Z,102112.84
2022-11-12T13:47:30.628Z,102111.69
2022-11-12T13:53:23.697Z,102099.38
2022-11-12T13:59:15.914Z,102090.91
2022-11-12T14:05:06.024Z,102087.88
2022-11-12T14:11:09.177Z,102076.50
2022-11-12T14:17:10.055Z,102087.34
2022-11-12T14:22:57.748Z,102076.84
2022-11-12T14:28:46.738Z,102073.81
2022-11-12T14:34:35.833Z,102063.22
2022-11-12T14:40:25.013Z,102072.13
2022-11-12T14:46:25.865Z,102059.06
2022-11-12T14:52:19.812Z,102045.34
2022-11-12T14:58:07.865Z,102040.06
2022-11-12T15:04:17.409Z,102031.25
2022-11-12T15:10:30.654Z,102017.03
2022-11-12T15:16:22.244Z,102013.25
2022-11-12T15:22:22.361Z,101998.34
2022-11-12T15:28:15.852Z,101982.47
2022-11-12T15:34:35.070Z,101988.53
2022-11-12T15:40:24.822Z,101978.06
2022-11-12T15:46:15.469Z,101986.63
2022-11-12T15:52:03.321Z,101988.47
2022-11-12T15:57:54.273Z,101986.94
2022-11-12T16:03:41.305Z,101994.88
2022-11-12T16:09:29.660Z,101985.09
2022-11-12T16:15:20.926Z,101990.16
2022-11-12T16:21:10.448Z,101986.78
2022-11-12T16:27:01.350Z,101996.78
2022-11-12T16:32:51.203Z,101991.06
2022-11-12T16:38:39.593Z,101990.41
2022-11-12T16:56:15.243Z,101983.53
2022-11-12T17:02:02.642Z,101988.94
2022-11-12T17:07:51.311Z,101982.47
2022-11-12T17:13:40.411Z,101983.44
2022-11-12T17:19:28.756Z,101958.75
2022-11-12T17:25:16.811Z,101956.34
2022-11-12T17:31:08.555Z,101959.66
2022-11-12T17:36:56.478Z,101959.38
2022-11-12T17:42:44.550Z,101954.66
2022-11-12T17:48:34.923Z,101958.03
2022-11-12T17:54:23.993Z,101952.84
2022-11-12T18:00:12.978Z,101948.34
2022-11-12T18:06:02.592Z,101944.66
2022-11-12T18:11:54.205Z,101928.78
2022-11-12T18:17:41.408Z,101926.81
2022-11-12T18:23:30.771Z,101921.13
2022-11-12T18:29:18.359Z,101923.50
2022-11-12T18:35:07.088Z,101915.38
2022-11-12T18:41:03.279Z,101912.72
2022-11-12T18:46:51.257Z,101910.34
2022-11-12T18:52:38.718Z,101904.94
2022-11-12T18:58:33.599Z,101890.41
2022-11-12T19:04:22.679Z,101887.03
2022-11-12T19:10:14.920Z,101887.88
2022-11-12T19:16:11.654Z,101894.13
2022-11-12T19:21:59.412Z,101895.81
2022-11-12T19:27:47.419Z,101882.63
2022-11-12T19:33:36.972Z,101891.75
2022-11-12T19:39:24.758Z,101895.13
2022-11-12T19:45:12.490Z,101891.06
2022-11-12T19:51:03.679Z,101881.44
2022-11-12T19:56:51.482Z,101862.69
2022-11-12T20:02:39.235Z,101870.81
2022-11-12T20:08:28.412Z,101874.19
2022-11-12T20:14:16.501Z,101851.19
2022-11-12T20:20:04.744Z,101861.31
2022-11-12T20:25:54.147Z,101867.41
2022-11-12T20:31:43.139Z,101852.53
2022-11-12T20:37:31.634Z,101839.66
2022-11-12T20:43:24.064Z,101840.84
2022-11-12T20:49:14.283Z,101830.72
2022-11-12T20:55:01.778Z,101820.59
2022-11-12T21:00:51.869Z,101817.50
2022-11-12T21:06:39.811Z,101807.88
2022-11-12T21:12:27.432Z,101808.22
2022-11-12T21:18:17.657Z,101809.91
2022-11-12T21:24:05.830Z,101809.25
2022-11-12T21:29:53.323Z,101808.91
2022-11-12T21:35:43.173Z,101800.41
2022-11-12T21:41:31.998Z,101808.53
2022-11-12T21:47:19.457Z,101800.06
2022-11-12T21:53:09.223Z,101801.09
2022-11-12T21:59:00.594Z,101793.16
2022-11-12T22:04:48.460Z,101791.97
2022-11-12T22:10:37.805Z,101772.78
2022-11-12T22:16:26.583Z,101764.00
2022-11-12T22:22:14.461Z,101765.00
2022-11-12T22:28:04.007Z,101759.97
2022-11-12T22:33:51.905Z,101764.69
2022-11-12T22:39:39.366Z,101766.72
2022-11-12T22:45:28.666Z,101764.00
2022-11-12T22:51:18.572Z,101756.56
2022-11-12T22:57:06.473Z,101736.66
2022-11-12T23:02:55.764Z,101736.34
2022-11-12T23:08:43.666Z,101730.94
2022-11-12T23:14:31.266Z,101739.22
2022-11-12T23:20:20.007Z,101750.88
2022-11-12T23:26:10.152Z,101738.03
2022-11-12T23:31:58.387Z,101743.59
2022-11-12T23:37:47.778Z,101727.88
2022-11-12T23:43:35.573Z,101734.28
2022-11-12T23:49:23.409Z,101726.66
2022-11-12T23:55:12.908Z,101730.91
